Flight Track Log - Related Links

Times and Time Zones

All times are in EDT time to prevent confusion due to time zone crossing. See the AWI3970 flight status page for this flight to view local times or setup timezone preferences in your user account.

Time Position Orientation Groundspeed Altitude Reporting Facility
EDT Latitude Longitude Course Direction KTS MPH feet Rate Location/Type
Fri 12:10:33 AM 39.8667 -75.2667 270° West 133 153 900  Level Philadelphia TRACON
Fri 12:11:46 AM 39.8667 -75.3333 270° West 214 246 3,700 2,160 Climbing Philadelphia TRACON
Fri 12:12:38 AM 39.9278 -75.3781 331° Northwest 273 314 5,400 2,509 Climbing New York Center
Fri 12:13:36 AM 39.9886 -75.4175 334° Northwest 307 353 8,300 2,521 Climbing New York Center
Fri 12:14:37 AM 40.0600 -75.4600 336° Northwest 301 346 10,400 1,475 Climbing New York Center
Fri 12:15:38 AM 40.1556 -75.5208 334° Northwest 329 379 11,300 756 Climbing New York Center
Fri 12:16:36 AM 40.2464 -75.5925 329° Northwest 359 413 11,900 958 Climbing New York Center
Fri 12:17:37 AM 40.3069 -75.6892 309° West 377 434 13,200 1,815 Climbing New York Center
Fri 12:18:35 AM 40.3775 -75.7950 311° West 384 442 15,500 1,900 Climbing New York Center
Fri 12:19:37 AM 40.4414 -75.9089 306° West 364 419 17,000 738 Climbing New York Center
Fri 12:20:37 AM 40.4669 -76.0417 284° West 364 419 17,000  Level New York Center
Fri 12:21:36 AM 40.4878 -76.1769 281° West 399 459 17,000 2,017 Level New York Center
Fri 12:22:36 AM 40.5083 -76.3178 281° West 405 466 21,000 1,736 Climbing New York Center
Fri 12:23:37 AM 40.5292 -76.4506 282° West 393 452 20,500  Descending New York Center
Fri 12:24:38 AM 40.5947 -76.5572 309° West 373 429 21,000 252 Climbing New York Center
Fri 12:25:36 AM 40.7100 -76.5914 347° North 362 417 21,000  Level New York Center
Fri 12:26:36 AM 40.8292 -76.6236 348° North 389 448 21,000  Level New York Center
Fri 12:27:37 AM 40.9503 -76.6589 348° North 422 486 21,000  Level New York Center
Fri 12:28:37 AM 41.0672 -76.6964 346° North 431 496 21,000  Level New York Center
Fri 12:29:35 AM 41.1822 -76.7286 348° North 431 496 21,000  Level New York Center
Fri 12:30:37 AM 41.2975 -76.7581 349° North 431 496 21,000  Level New York Center
Fri 12:31:35 AM 41.4033 -76.6844 28° Northeast 407 468 21,000  Level New York Center
Fri 12:32:36 AM 41.4644 -76.5403 60° Northeast 388 447 21,000  Level New York Center
Fri 12:33:36 AM 41.5386 -76.3858 57° Northeast 415 478 21,000 -101 Level New York Center
Fri 12:34:35 AM 41.6075 -76.2475 56° Northeast 431 496 20,800 -850 Descending New York Center
Fri 12:35:36 AM 41.6764 -76.1086 56° Northeast 444 511 19,300 -1,623 Descending New York Center
Fri 12:36:37 AM 41.7358 -75.9856 57° Northeast 442 509 17,500 -767 Descending New York Center
Fri 12:38:36 AM 41.8472 -75.7594 56° Northeast 400 460 17,000 -167 Descending Boston Center
Fri 12:39:37 AM 41.9158 -75.6236 56° Northeast 372 428 17,000  Level Boston Center
Fri 12:40:37 AM 41.9600 -75.5308 57° Northeast 367 422 17,000  Level Boston Center
Fri 12:41:36 AM 42.0153 -75.4217 56° Northeast 362 417 17,000  Level Boston Center
Fri 12:42:37 AM 42.0747 -75.2931 58° Northeast 351 404 17,000 -450 Level Boston Center
Fri 12:43:36 AM 42.1256 -75.1833 58° Northeast 346 398 16,100 -857 Descending Boston Center
Fri 12:44:36 AM 42.1606 -75.1122 56° Northeast 339 390 15,300 -1,000 Descending Boston Center
Fri 12:45:36 AM 42.2197 -74.9828 58° Northeast 333 383 14,100 -1,100 Descending Boston Center
Fri 12:46:36 AM 42.2681 -74.8756 59° Northeast 333 383 13,100 -1,020 Descending Boston Center
Fri 12:47:16 AM 42.3008 -74.7953 61° Northeast 328 377 12,400 -1,008 Descending Boston Center
Fri 12:48:35 AM 42.3619 -74.6628 58° Northeast 319 367 11,100 -600 Descending Boston Center
Fri 12:49:36 AM 42.4075 -74.5686 57° Northeast 298 343 11,000 -50 Descending Boston Center
Fri 12:50:36 AM 42.4469 -74.4717 61° Northeast 267 307 11,000 -400 Level Boston Center
Fri 12:51:36 AM 42.4836 -74.3967 56° Northeast 269 310 10,200 -1,300 Descending Boston Center
Fri 12:52:36 AM 42.5247 -74.3022 59° Northeast 264 304 8,400 -1,869 Descending Boston Center
Fri 12:53:38 AM 42.5386 -74.2125 78° East 240 276 6,400 -2,000 Descending Boston Center
Fri 12:54:39 AM 42.5422 -74.1253 87° East 231 266 4,300 -1,409 Descending Boston Center
Fri 12:55:33 AM 42.5453 -74.0464 87° East 227 261 3,700 -417 Descending Boston Center
Fri 12:56:34 AM 42.5483 -73.9731 87° East 191 220 3,500 -344 Descending Boston Center
Fri 12:57:35 AM 42.5556 -73.9058 82° East 186 214 3,000 -694 Descending Boston Center
Fri 12:58:35 AM 42.5794 -73.8331 66° East 196 226 2,100 -496 Descending Boston Center
Fri 12:59:36 AM 42.6011 -73.7686 65° Northeast 181 208 2,000 -347 Descending Boston Center
Fri 01:00:36 AM 42.6819 -73.8042 342° North 186 214 1,400 -645 Descending Boston Center
Fri 01:01:37 AM 42.7214 -73.8078 356° North 127 146 700 -689 Descending Boston Center
Fri 01:03:00 AM 42.7333 -73.8000 North  Level FlightAware Approximate
Fri 01:10:00 AM 42.7491 -73.8020 North  Level Estimated
Fri 01:11:00 AM 42.7491 -73.8020 North  Level Estimated

Login

Don't have an account? Register now (free) for customized features, flight alerts, and more!